createdAt,value
2017-12-21T00:00:17.601Z,3.9
2017-12-21T00:02:17.415Z,5.1
2017-12-21T00:04:18.148Z,6.1
2017-12-21T00:06:17.931Z,3.9
2017-12-21T00:08:20.718Z,3.2
2017-12-21T00:10:17.464Z,3.6
2017-12-21T00:12:17.256Z,3.1
2017-12-21T00:14:21.048Z,4.1
2017-12-21T00:16:16.812Z,2.9
2017-12-21T00:18:18.605Z,3.7
2017-12-21T00:20:21.325Z,3.6
2017-12-21T00:22:17.132Z,3.9
2017-12-21T00:24:16.908Z,2.8
2017-12-21T00:26:17.714Z,3
2017-12-21T00:28:21.460Z,3.4
2017-12-21T00:30:18.229Z,3.2
2017-12-21T00:32:17.056Z,3.3
2017-12-21T00:34:20.807Z,3.3
2017-12-21T00:36:17.628Z,3
2017-12-21T00:38:18.373Z,3.4
2017-12-21T00:40:18.151Z,4.9
2017-12-21T00:42:16.971Z,3.7
2017-12-21T00:44:17.720Z,3.5
2017-12-21T00:46:17.459Z,3.7
2017-12-21T00:48:17.287Z,4.6
2017-12-21T00:50:18.001Z,3.2
2017-12-21T00:52:20.785Z,3.3
2017-12-21T00:54:21.567Z,2.5
2017-12-21T00:56:17.338Z,2.5
2017-12-21T00:58:21.084Z,4.3
2017-12-21T01:00:16.873Z,3.6
2017-12-21T01:02:21.616Z,4.5
2017-12-21T01:04:17.391Z,2.6
2017-12-21T01:06:17.146Z,4.5
2017-12-21T01:08:16.956Z,2.8
2017-12-21T01:10:17.723Z,2.4
2017-12-21T01:12:18.449Z,2.8
2017-12-21T01:14:17.250Z,5.3
2017-12-21T01:16:20.987Z,2.5
2017-12-21T01:18:17.783Z,2.3
2017-12-21T01:20:21.567Z,2.6
2017-12-21T01:22:17.365Z,4.2
2017-12-21T01:24:17.134Z,2.1
2017-12-21T01:26:17.943Z,1.9
2017-12-21T01:28:20.694Z,2.5
2017-12-21T01:30:17.511Z,2.3
2017-12-21T01:32:21.316Z,1.9
2017-12-21T01:34:21.054Z,1.8
2017-12-21T01:36:17.884Z,2.2
2017-12-21T01:38:18.665Z,2
2017-12-21T01:40:17.420Z,2.9
2017-12-21T01:42:17.241Z,1.6
2017-12-21T01:44:20.981Z,1.7
2017-12-21T01:46:17.801Z,1.9
2017-12-21T01:48:21.546Z,1.9
2017-12-21T01:50:17.376Z,1.4
2017-12-21T01:52:17.145Z,1.6
2017-12-21T01:54:16.965Z,2.7
2017-12-21T01:56:17.800Z,1.7
2017-12-21T01:58:21.619Z,1.9
2017-12-21T02:00:18.347Z,1.6
2017-12-21T02:02:17.179Z,1.4
2017-12-21T02:04:16.974Z,1.5
2017-12-21T02:06:17.749Z,1.3
2017-12-21T02:08:17.596Z,1.4
2017-12-21T02:10:17.368Z,2.4
2017-12-21T02:12:17.159Z,1.5
2017-12-21T02:14:17.001Z,1.3
2017-12-21T02:16:17.763Z,1.4
2017-12-21T02:18:18.574Z,1.7
2017-12-21T02:20:17.366Z,1.2
2017-12-21T02:22:17.174Z,1.2
2017-12-21T02:24:16.963Z,1.3
2017-12-21T02:26:17.810Z,1.1
2017-12-21T02:28:18.562Z,1.1
2017-12-21T02:30:18.356Z,1.8
2017-12-21T02:32:17.168Z,1
2017-12-21T02:34:16.947Z,0.8
2017-12-21T02:36:17.737Z,1.1
2017-12-21T02:38:17.560Z,0.7
2017-12-21T02:40:17.344Z,0.9
2017-12-21T02:42:17.139Z,0.9
2017-12-21T02:44:16.950Z,1
2017-12-21T02:46:17.748Z,2.1
2017-12-21T02:48:17.550Z,0.8
2017-12-21T02:50:21.335Z,1
2017-12-21T02:52:17.167Z,1.4
2017-12-21T02:54:20.929Z,1
2017-12-21T02:56:17.764Z,0.9
2017-12-21T02:58:21.512Z,0.9
2017-12-21T03:00:17.336Z,1.8
2017-12-21T03:02:17.141Z,1
2017-12-21T03:04:16.938Z,1
2017-12-21T03:06:17.757Z,1.3
2017-12-21T03:08:21.490Z,0.9
2017-12-21T03:10:17.291Z,0.8
2017-12-21T03:12:17.124Z,0.8
2017-12-21T03:14:20.862Z,0.8
2017-12-21T03:16:17.721Z,1.5
2017-12-21T03:18:18.500Z,0.9
2017-12-21T03:20:18.278Z,1.2
2017-12-21T03:22:17.068Z,0.9
2017-12-21T03:24:16.881Z,1
2017-12-21T03:26:17.659Z,3.8
2017-12-21T03:28:17.455Z,1.6
2017-12-21T03:30:17.273Z,3.1
2017-12-21T03:32:17.098Z,1.4
2017-12-21T03:34:16.901Z,2.2
2017-12-21T03:36:17.687Z,1.2
2017-12-21T03:38:17.477Z,1.5
2017-12-21T03:40:17.272Z,4.2
2017-12-21T03:42:17.040Z,2.4
2017-12-21T03:44:16.843Z,1.9
2017-12-21T03:46:17.667Z,1.6
2017-12-21T03:48:21.429Z,4.9
2017-12-21T03:50:21.218Z,3.9
2017-12-21T03:52:17.027Z,2.7
2017-12-21T03:54:16.819Z,3.7
2017-12-21T03:56:17.625Z,2.4
2017-12-21T03:58:21.412Z,5.9
2017-12-21T04:00:21.174Z,4.4
2017-12-21T04:02:16.976Z,3.6
2017-12-21T04:04:16.805Z,3.1
2017-12-21T04:06:17.546Z,3.1
2017-12-21T04:08:17.337Z,2.8
2017-12-21T04:10:18.126Z,3.6
2017-12-21T04:12:16.900Z,3.4
2017-12-21T04:14:17.733Z,5
2017-12-21T04:16:17.518Z,3.1
2017-12-21T04:18:18.272Z,3.2
2017-12-21T04:20:17.108Z,3.2
2017-12-21T04:22:16.876Z,3.2
2017-12-21T04:24:17.677Z,2.9
2017-12-21T04:26:17.479Z,3.6
2017-12-21T04:28:17.277Z,4.2
2017-12-21T04:30:21.085Z,3.8
2017-12-21T04:32:16.873Z,4.6
2017-12-21T04:34:21.621Z,6
2017-12-21T04:36:17.456Z,4.5
2017-12-21T04:38:17.252Z,4.4
2017-12-21T04:40:18.045Z,6.2
2017-12-21T04:42:16.861Z,8.7
2017-12-21T04:44:17.642Z,6.8
2017-12-21T04:46:17.456Z,7.4
2017-12-21T04:48:17.256Z,5.1
2017-12-21T04:50:17.084Z,8
2017-12-21T04:52:20.809Z,8.4
2017-12-21T04:54:17.630Z,8.9
2017-12-21T04:56:17.427Z,6.5
2017-12-21T04:58:17.215Z,8
2017-12-21T05:00:17.012Z,10.1
2017-12-21T05:02:16.824Z,6
2017-12-21T05:04:17.627Z,8.9
2017-12-21T05:06:17.433Z,10.1
2017-12-21T05:08:21.201Z,7.5
2017-12-21T05:10:18.031Z,5.7
2017-12-21T05:12:20.780Z,8.1
2017-12-21T05:14:17.579Z,9.4
2017-12-21T05:16:18.385Z,8
2017-12-21T05:18:18.171Z,8.4
2017-12-21T05:20:20.952Z,8.8
2017-12-21T05:22:16.788Z,6.1
2017-12-21T05:24:21.530Z,5.6
2017-12-21T05:26:18.360Z,6
2017-12-21T05:28:17.176Z,6.1
2017-12-21T05:30:17.978Z,7.1
2017-12-21T05:32:16.759Z,6.3
2017-12-21T05:34:17.609Z,4.5
2017-12-21T05:36:18.363Z,7.2
2017-12-21T05:38:17.208Z,6.3
2017-12-21T05:40:17.960Z,8.4
2017-12-21T05:42:16.781Z,5
2017-12-21T05:44:17.551Z,4.4
2017-12-21T05:46:17.353Z,5.5
2017-12-21T05:48:17.191Z,5.2
2017-12-21T05:50:20.961Z,5
2017-12-21T05:52:16.792Z,8.5
2017-12-21T05:54:21.606Z,4.9
2017-12-21T05:56:18.383Z,5.5
2017-12-21T05:58:17.215Z,4.9
2017-12-21T06:00:20.967Z,5.8
2017-12-21T06:02:16.772Z,4.4
2017-12-21T06:04:17.591Z,4.3
2017-12-21T06:06:18.395Z,4.4
2017-12-21T06:08:17.259Z,5.8
2017-12-21T06:10:18.012Z,3.6
2017-12-21T06:12:16.818Z,3
2017-12-21T06:14:17.680Z,5.8
2017-12-21T06:16:17.456Z,2.6
2017-12-21T06:18:18.250Z,4.7
2017-12-21T06:20:17.069Z,3.1
2017-12-21T06:22:16.921Z,7.4
2017-12-21T06:24:18.661Z,2.9
2017-12-21T06:26:17.507Z,5
2017-12-21T06:28:17.306Z,4.7
2017-12-21T06:30:17.109Z,2.5
2017-12-21T06:32:16.905Z,3.6
2017-12-21T06:34:17.728Z,2.5
2017-12-21T06:36:17.547Z,2.1
2017-12-21T06:38:17.365Z,2.5
2017-12-21T06:40:18.214Z,3.5
2017-12-21T06:42:17.020Z,2.5
2017-12-21T06:44:16.802Z,1.7
2017-12-21T06:46:17.631Z,2.2
2017-12-21T06:48:21.434Z,2.3
2017-12-21T06:50:17.251Z,1.9
2017-12-21T06:52:17.100Z,2.2
2017-12-21T06:54:20.855Z,2
2017-12-21T06:56:17.673Z,4.2
2017-12-21T06:58:17.533Z,3.7
2017-12-21T07:00:21.261Z,2.2
2017-12-21T07:02:17.104Z,2.8
2017-12-21T07:04:16.926Z,1.6
2017-12-21T07:06:17.722Z,3.5
2017-12-21T07:08:17.525Z,2.3
2017-12-21T07:10:17.348Z,2.1
2017-12-21T07:12:17.120Z,1.7
2017-12-21T07:14:16.973Z,2.2
2017-12-21T07:16:17.759Z,5.9
2017-12-21T07:18:21.541Z,2
2017-12-21T07:20:17.378Z,2.7
2017-12-21T07:22:17.211Z,2.7
2017-12-21T07:24:21.080Z,2.7
2017-12-21T07:26:17.834Z,2
2017-12-21T07:28:17.598Z,2.1
2017-12-21T07:30:17.436Z,2
2017-12-21T07:32:17.255Z,3.3
2017-12-21T07:34:17.020Z,3.3
2017-12-21T07:36:17.860Z,3.1
2017-12-21T07:38:17.710Z,4.2
2017-12-21T07:40:17.519Z,2.9
2017-12-21T07:42:21.234Z,2.4
2017-12-21T07:44:17.080Z,2.1
2017-12-21T07:46:17.896Z,2.6
2017-12-21T07:48:17.681Z,2.4
2017-12-21T07:50:17.461Z,3.2
2017-12-21T07:52:17.301Z,2.5
2017-12-21T07:54:21.047Z,2.6
2017-12-21T07:56:17.889Z,3.6
2017-12-21T07:58:17.715Z,2.9
2017-12-21T08:00:18.495Z,3.3
2017-12-21T08:02:21.259Z,2.4
2017-12-21T08:04:17.086Z,2.5
2017-12-21T08:06:17.906Z,2.1
2017-12-21T08:08:17.675Z,2.4
2017-12-21T08:10:17.461Z,2.4
2017-12-21T08:12:17.291Z,1.9
2017-12-21T08:14:21.043Z,1.9
2017-12-21T08:16:17.821Z,2.5
2017-12-21T08:18:18.608Z,2.7
2017-12-21T08:20:17.395Z,1.7
2017-12-21T08:22:17.178Z,2.1
2017-12-21T08:24:17.019Z,6.6
2017-12-21T08:26:17.765Z,2.5
2017-12-21T08:28:17.541Z,2.5
2017-12-21T08:30:17.365Z,3.2
2017-12-21T08:32:17.193Z,2.6
2017-12-21T08:34:17.924Z,3.3
2017-12-21T08:36:17.736Z,2.1
2017-12-21T08:38:17.529Z,3.2
2017-12-21T08:40:17.320Z,6.8
2017-12-21T08:42:17.139Z,2.9
2017-12-21T08:44:20.914Z,2.4
2017-12-21T08:46:17.745Z,2.7
2017-12-21T08:48:21.524Z,3.4
2017-12-21T08:50:17.354Z,2.2
2017-12-21T08:52:17.123Z,2.2
2017-12-21T08:54:16.910Z,5.2
2017-12-21T08:56:17.761Z,2.6
2017-12-21T08:58:21.522Z,3.3
2017-12-21T09:00:18.337Z,3.2
2017-12-21T09:02:17.175Z,3
2017-12-21T09:04:20.960Z,1.6
2017-12-21T09:06:17.751Z,2
2017-12-21T09:08:17.559Z,1.9
2017-12-21T09:10:17.348Z,2
2017-12-21T09:12:17.171Z,3.2
2017-12-21T09:14:17.034Z,3
2017-12-21T09:16:17.826Z,1.3
2017-12-21T09:18:18.642Z,2.8
2017-12-21T09:20:18.448Z,1.7
2017-12-21T09:22:17.274Z,1.6
2017-12-21T09:24:17.119Z,3.2
2017-12-21T09:26:17.923Z,1.2
2017-12-21T09:28:21.685Z,1.1
2017-12-21T09:30:17.548Z,2.1
2017-12-21T09:32:21.304Z,2.9
2017-12-21T09:34:17.124Z,0.9
2017-12-21T09:36:17.948Z,1.2
2017-12-21T09:38:16.767Z,1.5
2017-12-21T09:40:17.578Z,1.1
2017-12-21T09:42:17.407Z,1.7
2017-12-21T09:44:17.212Z,1.2
2017-12-21T09:46:18.065Z,2.5
2017-12-21T09:48:16.903Z,2
2017-12-21T09:50:17.769Z,1.5
2017-12-21T09:52:21.641Z,1.8
2017-12-21T09:54:18.374Z,1.9
2017-12-21T09:56:18.191Z,1.7
2017-12-21T09:58:17.039Z,1.4
2017-12-21T10:00:16.830Z,4.7
2017-12-21T10:02:17.642Z,1.6
2017-12-21T10:04:21.493Z,3.6
2017-12-21T10:06:18.278Z,6.3
2017-12-21T10:08:17.140Z,1.5
2017-12-21T10:10:17.924Z,2.3
2017-12-21T10:12:17.776Z,3.6
2017-12-21T10:14:17.609Z,4
2017-12-21T10:16:17.441Z,8.3
2017-12-21T10:18:18.286Z,4.4
2017-12-21T10:20:17.102Z,1.8
2017-12-21T10:22:16.928Z,1.8
2017-12-21T10:24:16.760Z,4.4
2017-12-21T10:26:17.565Z,2.2
2017-12-21T10:28:17.422Z,2
2017-12-21T10:30:17.273Z,7.1
2017-12-21T10:32:21.056Z,1.6
2017-12-21T10:34:16.900Z,1.9
2017-12-21T10:36:17.723Z,3
2017-12-21T10:38:17.526Z,2
2017-12-21T10:40:17.381Z,1.7
2017-12-21T10:42:17.192Z,2.7
2017-12-21T10:44:16.999Z,1.8
2017-12-21T10:46:17.895Z,1.6
2017-12-21T10:48:21.627Z,1.4
2017-12-21T10:50:17.476Z,2.5
2017-12-21T10:52:17.348Z,1.7
2017-12-21T10:54:17.141Z,2.5
2017-12-21T10:56:18.024Z,2
2017-12-21T10:58:20.873Z,2.2
2017-12-21T11:00:18.651Z,1.9
2017-12-21T11:02:17.476Z,3.5
2017-12-21T11:04:17.336Z,2.3
2017-12-21T11:06:17.138Z,5.6
2017-12-21T11:08:16.949Z,2.3
2017-12-21T11:10:17.766Z,3
2017-12-21T11:12:17.629Z,2.5
2017-12-21T11:14:17.452Z,6.2
2017-12-21T11:16:17.270Z,4.7
2017-12-21T11:18:18.092Z,5.2
2017-12-21T11:20:16.915Z,2.7
2017-12-21T11:22:17.729Z,3.1
2017-12-21T11:24:17.556Z,2.7
2017-12-21T11:26:17.400Z,2.8
2017-12-21T11:28:17.274Z,2.5
2017-12-21T11:30:21.059Z,4.6
2017-12-21T11:32:16.881Z,3.9
2017-12-21T11:34:17.732Z,3.4
2017-12-21T11:36:17.570Z,2.7
2017-12-21T11:38:17.400Z,5.3
2017-12-21T11:40:17.160Z,3
2017-12-21T11:42:17.058Z,2.3
2017-12-21T11:44:20.849Z,3.6
2017-12-21T11:46:17.666Z,3
2017-12-21T11:48:17.486Z,2.8
2017-12-21T11:50:18.407Z,2.4
2017-12-21T11:52:18.134Z,3
2017-12-21T11:54:20.955Z,2.6
2017-12-21T11:56:17.778Z,3.1
2017-12-21T11:58:17.604Z,2.8
2017-12-21T12:00:17.419Z,5.4
2017-12-21T12:02:17.233Z,3.8
2017-12-21T12:04:17.094Z,3.1
2017-12-21T12:06:17.880Z,2.8
2017-12-21T12:08:17.711Z,4.2
2017-12-21T12:10:17.535Z,3.2
2017-12-21T12:12:17.327Z,2.9
2017-12-21T12:14:17.158Z,2.9
2017-12-21T12:16:17.004Z,3.4
2017-12-21T12:18:17.799Z,3
2017-12-21T12:20:17.673Z,3
2017-12-21T12:22:18.450Z,5.4
2017-12-21T12:24:17.258Z,3.1
2017-12-21T12:26:17.092Z,3.6
2017-12-21T12:28:16.894Z,5.6
2017-12-21T12:30:17.740Z,3.8
2017-12-21T12:32:17.590Z,6.1
2017-12-21T12:34:18.380Z,4.3
2017-12-21T12:36:17.246Z,6.5
2017-12-21T12:38:17.039Z,6.3
2017-12-21T12:40:17.889Z,4
2017-12-21T12:42:17.722Z,4.8
2017-12-21T12:44:17.522Z,4.3
2017-12-21T12:46:18.349Z,4.3
2017-12-21T12:48:17.246Z,5.1
2017-12-21T12:50:17.027Z,5.2
2017-12-21T12:52:16.854Z,3.8
2017-12-21T12:54:17.690Z,3.8
2017-12-21T12:56:17.538Z,4.6
2017-12-21T12:58:17.367Z,4.3
2017-12-21T13:00:17.156Z,5.8
2017-12-21T13:02:16.985Z,5.5
2017-12-21T13:04:16.859Z,5.8
2017-12-21T13:06:17.654Z,5.6
2017-12-21T13:08:17.477Z,5.5
2017-12-21T13:10:17.286Z,5.1
2017-12-21T13:12:17.096Z,4.7
2017-12-21T13:14:16.889Z,4
2017-12-21T13:16:17.745Z,4
2017-12-21T13:18:18.521Z,4.4
2017-12-21T13:20:17.347Z,5.2
2017-12-21T13:22:17.170Z,6.5
2017-12-21T13:24:20.916Z,5
2017-12-21T13:26:17.753Z,6
2017-12-21T13:28:17.590Z,4.8
2017-12-21T13:30:18.362Z,4.9
2017-12-21T13:32:17.144Z,6.1
2017-12-21T13:34:16.975Z,6.9
2017-12-21T13:36:17.751Z,6.5
2017-12-21T13:38:17.547Z,7.3
2017-12-21T13:40:17.352Z,6
2017-12-21T13:42:17.150Z,5.9
2017-12-21T13:44:16.981Z,8.5
2017-12-21T13:46:17.807Z,8.5
2017-12-21T13:48:17.702Z,6.7
2017-12-21T13:50:18.427Z,4.7
2017-12-21T13:52:17.278Z,6.2
2017-12-21T13:54:21.028Z,6.2
2017-12-21T13:56:17.906Z,6
2017-12-21T13:58:21.678Z,7.6
2017-12-21T14:00:17.493Z,7.7
2017-12-21T14:02:17.318Z,9.3
2017-12-21T14:04:17.111Z,7.5
2017-12-21T14:06:17.961Z,10
2017-12-21T14:08:16.827Z,5.6
2017-12-21T14:10:17.634Z,7.3
2017-12-21T14:12:17.469Z,7.7
2017-12-21T14:14:17.287Z,5.2
2017-12-21T14:16:17.093Z,5.5
2017-12-21T14:18:17.919Z,7.8
2017-12-21T14:20:17.716Z,6.9
2017-12-21T14:22:17.533Z,5.1
2017-12-21T14:24:17.379Z,7
2017-12-21T14:26:17.139Z,5.3
2017-12-21T14:28:16.957Z,6.6
2017-12-21T14:30:16.766Z,5.4
2017-12-21T14:32:17.556Z,5.5
2017-12-21T14:34:17.437Z,7.5
2017-12-21T14:36:17.228Z,6.3
2017-12-21T14:38:20.981Z,6.1
2017-12-21T14:40:17.852Z,7.3
2017-12-21T14:42:21.636Z,6.5
2017-12-21T14:44:17.420Z,6.7
2017-12-21T14:46:18.225Z,5.9
2017-12-21T14:48:17.060Z,5
2017-12-21T14:50:17.853Z,7.1
2017-12-21T14:52:17.685Z,6.6
2017-12-21T14:54:17.472Z,10.9
2017-12-21T14:56:18.307Z,12
2017-12-21T14:58:17.137Z,7.2
2017-12-21T15:00:20.933Z,8.2
2017-12-21T15:02:16.727Z,7.1
2017-12-21T15:04:17.575Z,8.1
2017-12-21T15:06:17.364Z,8.2
2017-12-21T15:08:17.178Z,6.8
2017-12-21T15:10:18.009Z,8
2017-12-21T15:12:20.785Z,6.7
2017-12-21T15:14:17.640Z,9.2
2017-12-21T15:16:17.386Z,5.4
2017-12-21T15:18:21.182Z,6.2
2017-12-21T15:20:17.014Z,6.4
2017-12-21T15:22:16.810Z,7.1
2017-12-21T15:24:17.634Z,5.7
2017-12-21T15:26:17.455Z,6.9
2017-12-21T15:28:21.256Z,5.6
2017-12-21T15:30:21.026Z,7.3
2017-12-21T15:32:16.846Z,6.9
2017-12-21T15:34:21.598Z,11.4
2017-12-21T15:36:18.424Z,7.8
2017-12-21T15:38:17.279Z,8.3
2017-12-21T15:40:18.028Z,5.9
2017-12-21T15:42:16.839Z,5.2
2017-12-21T15:44:17.658Z,5.6
2017-12-21T15:46:17.437Z,9
2017-12-21T15:48:17.265Z,8
2017-12-21T15:50:17.076Z,8.4
2017-12-21T15:52:20.861Z,7.1
2017-12-21T15:54:17.670Z,8.3
2017-12-21T15:56:17.487Z,6.3
2017-12-21T15:58:17.259Z,7.5
2017-12-21T16:00:17.081Z,8.3
2017-12-21T16:02:16.863Z,7.5
2017-12-21T16:04:17.683Z,7
2017-12-21T16:06:17.490Z,5.8
2017-12-21T16:08:21.240Z,7.9
2017-12-21T16:10:18.051Z,7.8
2017-12-21T16:12:16.875Z,7.7
2017-12-21T16:14:21.630Z,5.8
2017-12-21T16:16:17.485Z,8
2017-12-21T16:18:18.240Z,6.6
2017-12-21T16:20:17.022Z,5.3
2017-12-21T16:22:16.853Z,6.7
2017-12-21T16:24:21.605Z,4.3
2017-12-21T16:26:17.428Z,7.1
2017-12-21T16:28:17.236Z,4.6
2017-12-21T16:30:21.010Z,5.4
2017-12-21T16:32:16.854Z,7.2
2017-12-21T16:34:21.622Z,6.3
2017-12-21T16:36:18.420Z,8.2
2017-12-21T16:38:17.257Z,5.1
2017-12-21T16:40:18.012Z,7
2017-12-21T16:42:16.815Z,6.2
2017-12-21T16:44:17.629Z,5.4
2017-12-21T16:46:18.403Z,7.5
2017-12-21T16:48:17.257Z,7.4
2017-12-21T16:50:21.009Z,5.4
2017-12-21T16:52:16.800Z,4.4
2017-12-21T16:54:17.589Z,5.8
2017-12-21T16:56:17.434Z,6.7
2017-12-21T16:58:21.308Z,6.3
2017-12-21T17:00:18.032Z,8.5
2017-12-21T17:02:20.789Z,5.9
2017-12-21T17:04:17.620Z,5.2
2017-12-21T17:06:17.403Z,8
2017-12-21T17:08:17.185Z,6.8
2017-12-21T17:10:17.992Z,10.3
2017-12-21T17:12:16.818Z,5.3
2017-12-21T17:14:21.578Z,4.3
2017-12-21T17:16:17.413Z,5.1
2017-12-21T17:18:18.237Z,7.6
2017-12-21T17:20:17.001Z,4.3
2017-12-21T17:22:16.821Z,6.8
2017-12-21T17:24:17.671Z,6.8
2017-12-21T17:26:17.446Z,5.8
2017-12-21T17:28:17.225Z,6.5
2017-12-21T17:30:17.055Z,8.2
2017-12-21T17:32:20.797Z,7.1
2017-12-21T17:34:17.601Z,7.1
2017-12-21T17:36:17.403Z,6.3
2017-12-21T17:38:21.168Z,5
2017-12-21T17:40:18.011Z,8.6
2017-12-21T17:42:20.775Z,5.6
2017-12-21T17:44:17.561Z,6.4
2017-12-21T17:46:17.391Z,7.8
2017-12-21T17:48:21.150Z,6.4
2017-12-21T17:50:16.972Z,7.3
2017-12-21T17:52:16.762Z,6.5
2017-12-21T17:54:17.530Z,5.6
2017-12-21T17:56:17.365Z,5.8
2017-12-21T17:58:17.152Z,6.1
2017-12-21T18:00:16.969Z,5.3
2017-12-21T18:02:20.740Z,5.4
2017-12-21T18:04:17.561Z,9
2017-12-21T18:06:18.334Z,9.8
2017-12-21T18:08:21.132Z,5.4
2017-12-21T18:10:17.915Z,7.6
2017-12-21T18:12:21.655Z,6.6
2017-12-21T18:14:17.447Z,5.5
2017-12-21T18:16:18.254Z,6.1
2017-12-21T18:18:18.032Z,6.5
2017-12-21T18:20:16.877Z,6.3
2017-12-21T18:22:18.632Z,8
2017-12-21T18:24:21.393Z,5.2
2017-12-21T18:26:17.203Z,5.1
2017-12-21T18:28:20.976Z,6.5
2017-12-21T18:30:16.750Z,8.4
2017-12-21T18:32:17.567Z,6
2017-12-21T18:34:18.319Z,9
2017-12-21T18:36:18.093Z,5.4
2017-12-21T18:38:20.915Z,5.6
2017-12-21T18:40:17.679Z,4.7
2017-12-21T18:42:17.446Z,6.1
2017-12-21T18:44:17.250Z,6.5
2017-12-21T18:46:17.020Z,9.4
2017-12-21T18:48:16.819Z,89.7
2017-12-21T18:50:17.616Z,5.4
2017-12-21T18:52:21.374Z,5.9
2017-12-21T18:54:17.192Z,9.8
2017-12-21T18:56:16.966Z,8.8
2017-12-21T18:58:16.765Z,10
2017-12-21T19:00:18.552Z,11.9
2017-12-21T19:02:21.306Z,6.1
2017-12-21T19:04:17.105Z,5.6
2017-12-21T19:06:17.911Z,5.8
2017-12-21T19:08:21.683Z,7.3
2017-12-21T19:10:17.484Z,6.4
2017-12-21T19:12:17.308Z,7.3
2017-12-21T19:14:21.049Z,5
2017-12-21T19:16:17.848Z,6
2017-12-21T19:18:18.612Z,6.2
2017-12-21T19:20:21.387Z,6.7
2017-12-21T19:22:17.169Z,5.6
2017-12-21T19:24:16.984Z,7.4
2017-12-21T19:26:17.777Z,6.2
2017-12-21T19:28:21.547Z,5
2017-12-21T19:30:18.306Z,7.5
2017-12-21T19:32:21.055Z,5.5
2017-12-21T19:34:16.864Z,4.7
2017-12-21T19:36:17.598Z,5.8
2017-12-21T19:40:18.174Z,5.6
2017-12-21T19:42:17.954Z,6.6
2017-12-21T19:44:20.688Z,5.8
2017-12-21T19:46:17.487Z,5.8
2017-12-21T19:48:17.277Z,6.4
2017-12-21T19:50:21.066Z,9.7
2017-12-21T19:52:20.806Z,11.1
2017-12-21T19:54:21.567Z,7.8
2017-12-21T19:56:17.374Z,9.9
2017-12-21T19:58:18.164Z,9.4
2017-12-21T20:00:17.947Z,10.9
2017-12-21T20:02:20.687Z,11.1
2017-12-21T20:04:17.482Z,12.9
2017-12-21T20:06:18.237Z,9.9
2017-12-21T20:08:17.047Z,10.6
2017-12-21T20:10:17.805Z,15.5
2017-12-21T20:12:17.608Z,13.3
2017-12-21T20:14:18.405Z,15.4
2017-12-21T20:16:18.126Z,19.6
2017-12-21T20:18:17.954Z,16.2
2017-12-21T20:20:17.726Z,15
2017-12-21T20:22:21.533Z,15.7
2017-12-21T20:24:18.303Z,18.7
2017-12-21T20:26:18.063Z,16.8
2017-12-21T20:28:20.813Z,18.4
2017-12-21T20:30:21.586Z,19.4
2017-12-21T20:32:21.330Z,20.5
2017-12-21T20:34:21.092Z,20.8
2017-12-21T20:36:17.903Z,21.3
2017-12-21T20:38:18.637Z,20.9
2017-12-21T20:40:17.398Z,21.8
2017-12-21T20:42:17.187Z,23.9
2017-12-21T20:44:20.917Z,22.4
2017-12-21T20:46:17.728Z,23.8
2017-12-21T20:48:18.469Z,25.5
2017-12-21T20:50:18.186Z,28.3
2017-12-21T20:52:20.941Z,24.3
2017-12-21T20:54:20.665Z,26.1
2017-12-21T20:56:17.461Z,28.9
2017-12-21T20:58:21.200Z,26.1
2017-12-21T21:00:20.942Z,28.4
2017-12-21T21:02:16.757Z,28.4
2017-12-21T21:04:18.486Z,31.3
2017-12-21T21:06:18.260Z,29.6
2017-12-21T21:08:21.052Z,30.9
2017-12-21T21:10:17.845Z,29.5
2017-12-21T21:12:18.550Z,30.3
2017-12-21T21:14:17.398Z,26.3
2017-12-21T21:16:17.096Z,29.3
2017-12-21T21:18:17.932Z,29
2017-12-21T21:20:17.706Z,30.5
2017-12-21T21:22:21.444Z,32.5
2017-12-21T21:24:17.261Z,27.5
2017-12-21T21:26:18.019Z,24.3
2017-12-21T21:28:16.807Z,27.2
2017-12-21T21:30:21.577Z,22.6
2017-12-21T21:32:17.381Z,21.3
2017-12-21T21:34:21.179Z,22.8
2017-12-21T21:36:17.971Z,22.4
2017-12-21T21:38:16.769Z,21.7
2017-12-21T21:40:17.533Z,17.8
2017-12-21T21:42:17.365Z,19.4
2017-12-21T21:44:18.092Z,21
2017-12-21T21:46:17.917Z,16.3
2017-12-21T21:48:21.674Z,18.5
2017-12-21T21:50:17.488Z,25.3
2017-12-21T21:52:18.274Z,18.5
2017-12-21T21:54:21.027Z,17.3
2017-12-21T21:56:17.810Z,16.8
2017-12-21T21:58:17.654Z,15.6
2017-12-21T22:00:18.406Z,13.6
2017-12-21T22:02:17.218Z,17
2017-12-21T22:04:20.998Z,19.8
2017-12-21T22:06:17.760Z,16.1
2017-12-21T22:08:17.565Z,14.1
2017-12-21T22:10:17.306Z,12.7
2017-12-21T22:12:17.197Z,12
2017-12-21T22:14:17.849Z,11.2
2017-12-21T22:16:17.678Z,14
2017-12-21T22:18:18.400Z,10.2
2017-12-21T22:20:18.222Z,11.6
2017-12-21T22:22:20.958Z,14.2
2017-12-21T22:24:16.767Z,9.3
2017-12-21T22:26:17.548Z,10.5
2017-12-21T22:28:21.295Z,12.9
2017-12-21T22:30:21.048Z,9.9
2017-12-21T22:32:16.861Z,10.3
2017-12-21T22:34:17.609Z,12
2017-12-21T22:36:17.432Z,8.1
2017-12-21T22:38:21.213Z,11.7
2017-12-21T22:40:17.978Z,8.9
2017-12-21T22:42:16.759Z,10.6
2017-12-21T22:44:17.568Z,10.7
2017-12-21T22:46:18.320Z,10.3
2017-12-21T22:48:17.142Z,7.9
2017-12-21T22:50:17.902Z,6.6
2017-12-21T22:52:17.723Z,8.4
2017-12-21T22:54:21.447Z,9.7
2017-12-21T22:56:17.241Z,11.3
2017-12-21T22:58:21.024Z,8.6
2017-12-21T23:00:17.817Z,12
2017-12-21T23:02:17.620Z,8.9
2017-12-21T23:04:21.412Z,9
2017-12-21T23:06:17.239Z,7.6
2017-12-21T23:08:20.988Z,6.8
2017-12-21T23:10:17.765Z,10.9
2017-12-21T23:12:17.559Z,4.2
2017-12-21T23:14:21.308Z,9.2
2017-12-21T23:16:17.070Z,13.5
2017-12-21T23:18:17.913Z,5.4
2017-12-21T23:20:18.633Z,5.6
2017-12-21T23:22:21.372Z,5.4
2017-12-21T23:24:17.234Z,5.4
2017-12-21T23:26:16.975Z,8.8
2017-12-21T23:28:16.752Z,9.5
2017-12-21T23:30:21.516Z,8.3
2017-12-21T23:32:21.283Z,9.9
2017-12-21T23:34:21.062Z,5.9
2017-12-21T23:36:16.845Z,7.5
2017-12-21T23:38:21.603Z,9.2
2017-12-21T23:40:17.380Z,5.8
2017-12-21T23:42:21.154Z,6.3
2017-12-21T23:44:20.935Z,6.1
2017-12-21T23:46:17.722Z,4
2017-12-21T23:48:18.466Z,3.4
2017-12-21T23:50:21.194Z,5.5
2017-12-21T23:52:17.036Z,4.5
2017-12-21T23:54:20.770Z,4
2017-12-21T23:56:17.580Z,3.8
2017-12-21T23:58:21.313Z,5.8
